createdAt,value
2018-12-11T00:03:21.204Z,92.175293
2018-12-11T00:06:49.044Z,92.694092
2018-12-11T00:10:16.897Z,93.353271
2018-12-11T00:13:44.747Z,92.425537
2018-12-11T00:17:12.602Z,92.114258
2018-12-11T00:20:40.459Z,92.425537
2018-12-11T00:24:08.418Z,92.938232
2018-12-11T00:27:36.250Z,94.702148
2018-12-11T00:31:04.101Z,94.909668
2018-12-11T00:34:31.951Z,95.947266
2018-12-11T00:37:59.799Z,96.984863
2018-12-11T00:41:27.630Z,96.820068
2018-12-11T00:44:55.498Z,96.820068
2018-12-11T00:48:23.439Z,97.338867
2018-12-11T00:51:51.302Z,97.961426
2018-12-11T00:55:19.181Z,98.272705
2018-12-11T00:58:48.050Z,98.376465
2018-12-11T01:02:15.911Z,97.857666
2018-12-11T01:05:44.773Z,97.650146
2018-12-11T01:09:12.647Z,97.961426
2018-12-11T01:12:40.521Z,97.338867
2018-12-11T01:16:08.380Z,96.30127
2018-12-11T01:19:36.254Z,94.744873
2018-12-11T01:23:04.123Z,95.263672
2018-12-11T01:26:31.979Z,94.702148
2018-12-11T01:29:59.854Z,94.848633
2018-12-11T01:33:27.728Z,94.744873
2018-12-11T01:36:55.584Z,94.598389
2018-12-11T01:40:23.461Z,94.494629
2018-12-11T01:43:51.338Z,94.702148
2018-12-11T01:47:20.203Z,95.220947
2018-12-11T01:50:48.064Z,95.367432
2018-12-11T01:54:15.947Z,95.98999
2018-12-11T01:57:43.819Z,96.612549
2018-12-11T02:01:11.687Z,96.716309
2018-12-11T02:04:39.559Z,95.98999
2018-12-11T02:08:07.434Z,94.952393
2018-12-11T02:11:35.499Z,94.952393
2018-12-11T02:15:03.357Z,95.88623
2018-12-11T02:18:31.233Z,96.923828
2018-12-11T02:21:59.102Z,97.015381
2018-12-11T02:25:26.964Z,98.510742
2018-12-11T02:28:54.834Z,99.133301
2018-12-11T02:32:22.708Z,99.44458
2018-12-11T02:35:50.565Z,99.816895
2018-12-11T02:39:18.445Z,99.993896
2018-12-11T02:42:46.318Z,99.920654
2018-12-11T02:46:14.192Z,99.816895
2018-12-11T02:49:42.057Z,99.6521
2018-12-11T02:53:09.927Z,99.6521
2018-12-11T02:56:37.800Z,99.237061
2018-12-11T03:00:05.661Z,99.133301
2018-12-11T03:03:33.603Z,99.133301
2018-12-11T03:07:01.466Z,99.54834
2018-12-11T03:10:29.322Z,99.6521
2018-12-11T03:13:57.282Z,99.194336
2018-12-11T03:17:25.072Z,98.883057
2018-12-11T03:20:53.919Z,98.052979
2018-12-11T03:24:24.928Z,97.53418
2018-12-11T03:27:53.348Z,96.392822
2018-12-11T03:31:21.209Z,96.289062
2018-12-11T03:34:49.097Z,96.704102
2018-12-11T03:38:16.979Z,96.124268
2018-12-11T03:41:44.848Z,95.501709
2018-12-11T03:45:13.705Z,95.605469
2018-12-11T03:48:41.892Z,94.87915
2018-12-11T03:52:09.763Z,95.501709
2018-12-11T03:55:40.601Z,94.98291
2018-12-11T03:59:08.465Z,94.775391
2018-12-11T04:02:36.340Z,92.590332
2018-12-11T04:06:04.196Z,93.634033
2018-12-11T04:09:32.101Z,93.322754
2018-12-11T04:12:59.972Z,94.775391
2018-12-11T04:16:27.828Z,95.19043
2018-12-11T04:19:55.732Z,94.98291
2018-12-11T04:23:23.608Z,93.530273
2018-12-11T04:26:51.484Z,92.694092
2018-12-11T04:30:19.334Z,92.590332
2018-12-11T04:33:47.210Z,92.382812
2018-12-11T04:37:15.092Z,92.071533
2018-12-11T04:40:42.955Z,91.760254
2018-12-11T04:44:10.839Z,92.279053
2018-12-11T04:47:38.714Z,92.175293
2018-12-11T04:51:06.569Z,91.552734
2018-12-11T04:54:34.448Z,90.930176
2018-12-11T04:58:02.329Z,89.892578
2018-12-11T05:01:30.240Z,90.930176
2018-12-11T05:04:58.099Z,91.448975
2018-12-11T05:08:25.984Z,91.033936
2018-12-11T05:11:53.866Z,90.826416
2018-12-11T05:15:21.725Z,89.752197
2018-12-11T05:18:49.595Z,87.988281
2018-12-11T05:22:17.473Z,87.261963
2018-12-11T05:25:45.330Z,87.261963
2018-12-11T05:29:13.203Z,88.647461
2018-12-11T05:32:41.077Z,88.647461
2018-12-11T05:36:08.933Z,89.27002
2018-12-11T05:39:36.806Z,89.581299
2018-12-11T05:43:04.685Z,88.95874
2018-12-11T05:46:32.542Z,87.817383
2018-12-11T05:50:00.411Z,85.949707
2018-12-11T05:53:28.293Z,86.779785
2018-12-11T05:56:56.171Z,86.987305
2018-12-11T06:00:24.040Z,88.128662
2018-12-11T06:03:51.919Z,88.751221
2018-12-11T06:07:19.800Z,88.543701
2018-12-11T06:10:47.654Z,88.232422
2018-12-11T06:14:15.530Z,88.336182
2018-12-11T06:17:43.409Z,87.884521
2018-12-11T06:21:11.285Z,89.233398
2018-12-11T06:24:39.150Z,90.478516
2018-12-11T06:28:07.023Z,91.033936
2018-12-11T06:31:34.903Z,90.515137
2018-12-11T06:35:02.755Z,91.137695
2018-12-11T06:38:31.621Z,90.618896
2018-12-11T06:41:59.498Z,90.411377
2018-12-11T06:45:27.349Z,90.686035
2018-12-11T06:48:55.218Z,91.204834
2018-12-11T06:52:23.092Z,90.478516
2018-12-11T06:55:50.944Z,90.686035
2018-12-11T06:59:19.820Z,90.374756
2018-12-11T07:02:47.696Z,90.478516
2018-12-11T07:06:15.567Z,90.478516
2018-12-11T07:09:43.421Z,90.374756
2018-12-11T07:13:12.288Z,91.101074
2018-12-11T07:16:40.162Z,91.101074
2018-12-11T07:20:08.020Z,91.412354
2018-12-11T07:23:35.896Z,91.784668
2018-12-11T07:27:03.771Z,91.680908
2018-12-11T07:30:31.651Z,92.095947
2018-12-11T07:33:59.511Z,91.992188
2018-12-11T07:37:27.388Z,91.369629
2018-12-11T07:40:55.284Z,92.822266
2018-12-11T07:44:23.143Z,93.334961
2018-12-11T07:47:51.021Z,94.268799
2018-12-11T07:51:18.897Z,94.683838
2018-12-11T07:54:46.759Z,95.202637
2018-12-11T07:58:14.625Z,95.928955
2018-12-11T08:01:42.505Z,96.551514
2018-12-11T08:05:10.359Z,96.966553
2018-12-11T08:08:38.243Z,97.174072
2018-12-11T08:12:08.347Z,97.485352
2018-12-11T08:15:36.092Z,97.692871
2018-12-11T08:19:03.954Z,97.589111
2018-12-11T08:22:32.832Z,97.796631
2018-12-11T08:26:00.705Z,97.796631
2018-12-11T08:29:28.565Z,98.00415
2018-12-11T08:32:56.445Z,97.174072
2018-12-11T08:36:24.317Z,96.09375
2018-12-11T08:39:52.177Z,95.367432
2018-12-11T08:43:20.067Z,95.263672
2018-12-11T08:46:47.950Z,95.159912
2018-12-11T08:50:15.804Z,95.159912
2018-12-11T08:53:43.679Z,95.574951
2018-12-11T08:57:11.549Z,96.820068
2018-12-11T09:00:39.411Z,97.650146
2018-12-11T09:04:07.285Z,97.857666
2018-12-11T09:07:35.169Z,97.546387
2018-12-11T09:11:03.030Z,97.131348
2018-12-11T09:14:30.907Z,97.442627
2018-12-11T09:17:58.787Z,96.612549
2018-12-11T09:21:26.653Z,97.027588
2018-12-11T09:24:54.537Z,96.820068
2018-12-11T09:28:22.410Z,95.98999
2018-12-11T09:31:50.269Z,95.324707
2018-12-11T09:35:18.148Z,95.013428
2018-12-11T09:38:46.021Z,94.390869
2018-12-11T09:42:13.880Z,92.938232
2018-12-11T09:45:41.765Z,92.486572
2018-12-11T09:49:10.622Z,92.797852
2018-12-11T09:52:38.491Z,92.279053
2018-12-11T09:56:06.354Z,92.071533
2018-12-11T09:59:34.230Z,91.760254
2018-12-11T10:03:02.105Z,91.656494
2018-12-11T10:06:29.969Z,91.864014
2018-12-11T10:09:57.845Z,91.967773
2018-12-11T10:13:25.724Z,92.279053
2018-12-11T10:16:53.584Z,91.241455
2018-12-11T10:20:21.461Z,91.656494
2018-12-11T10:23:50.328Z,91.552734
2018-12-11T10:27:18.182Z,91.760254
2018-12-11T10:30:46.081Z,90.826416
2018-12-11T10:34:13.952Z,90.783691
2018-12-11T10:37:41.841Z,91.40625
2018-12-11T10:41:09.694Z,90.576172
2018-12-11T10:44:37.570Z,90.991211
2018-12-11T10:48:05.451Z,90.637207
2018-12-11T10:51:33.308Z,90.948486
2018-12-11T10:55:01.180Z,89.501953
2018-12-11T10:58:30.041Z,89.855957
2018-12-11T11:01:57.901Z,90.161133
2018-12-11T11:05:25.786Z,90.368652
2018-12-11T11:08:53.663Z,91.717529
2018-12-11T11:12:21.526Z,89.233398
2018-12-11T11:15:49.408Z,88.818359
2018-12-11T11:19:17.283Z,89.025879
2018-12-11T11:22:46.146Z,88.61084
2018-12-11T11:26:14.012Z,89.025879
2018-12-11T11:29:42.891Z,88.983154
2018-12-11T11:33:10.768Z,88.818359
2018-12-11T11:36:38.625Z,89.752197
2018-12-11T11:40:06.504Z,90.124512
2018-12-11T11:43:34.386Z,88.40332
2018-12-11T11:47:03.242Z,89.025879
2018-12-11T11:50:32.109Z,88.7146
2018-12-11T11:53:59.981Z,88.360596
2018-12-11T11:57:29.760Z,88.464355
2018-12-11T12:00:57.788Z,88.262939
2018-12-11T12:04:25.664Z,88.40332
2018-12-11T12:07:54.539Z,88.299561
2018-12-11T12:11:22.399Z,88.195801
2018-12-11T12:14:50.283Z,88.092041
2018-12-11T12:18:18.187Z,88.092041
2018-12-11T12:21:46.048Z,87.573242
2018-12-11T12:25:13.919Z,88.195801
2018-12-11T12:28:41.789Z,88.195801
2018-12-11T12:32:09.641Z,88.40332
2018-12-11T12:35:37.519Z,88.40332
2018-12-11T12:39:05.400Z,89.752197
2018-12-11T12:42:33.283Z,89.025879
2018-12-11T12:46:01.148Z,88.299561
2018-12-11T12:49:29.014Z,88.40332
2018-12-11T12:52:56.883Z,87.988281
2018-12-11T12:56:24.741Z,87.884521
2018-12-11T12:59:52.612Z,87.780762
2018-12-11T13:03:20.488Z,87.573242
2018-12-11T13:06:48.346Z,87.469482
2018-12-11T13:10:16.217Z,87.988281
2018-12-11T13:13:44.092Z,88.40332
2018-12-11T13:17:11.960Z,88.818359
2018-12-11T13:20:39.835Z,88.61084
2018-12-11T13:24:07.708Z,89.752197
2018-12-11T13:27:35.571Z,88.818359
2018-12-11T13:31:03.445Z,89.129639
2018-12-11T13:34:31.326Z,89.337158
2018-12-11T13:37:59.172Z,88.861084
2018-12-11T13:41:28.155Z,88.922119
2018-12-11T13:44:56.031Z,89.648438
2018-12-11T13:48:23.913Z,89.544678
2018-12-11T13:51:51.779Z,88.818359
2018-12-11T13:55:19.659Z,89.544678
2018-12-11T13:58:47.537Z,90.203857
2018-12-11T14:02:15.397Z,90.618896
2018-12-11T14:05:43.274Z,90.722656
2018-12-11T14:09:11.150Z,91.033936
2018-12-11T14:12:39.013Z,90.826416
2018-12-11T14:16:06.889Z,90.826416
2018-12-11T14:19:34.756Z,90.100098
2018-12-11T14:23:02.619Z,90.203857
2018-12-11T14:26:30.497Z,90.930176
2018-12-11T14:29:58.368Z,91.552734
2018-12-11T14:33:26.250Z,91.760254
2018-12-11T14:36:54.112Z,91.967773
2018-12-11T14:40:21.985Z,92.114258
2018-12-11T14:43:49.863Z,92.114258
2018-12-11T14:47:17.723Z,92.175293
2018-12-11T14:50:45.595Z,91.552734
2018-12-11T14:54:13.469Z,92.071533
2018-12-11T14:57:47.943Z,91.448975
2018-12-11T15:01:15.814Z,91.345215
2018-12-11T15:04:43.688Z,91.033936
2018-12-11T15:08:11.564Z,90.722656
2018-12-11T15:11:39.426Z,90.722656
2018-12-11T15:15:07.311Z,89.996338
2018-12-11T15:18:35.182Z,90.618896
2018-12-11T15:22:03.041Z,90.411377
2018-12-11T15:25:30.919Z,89.172363
2018-12-11T15:28:59.798Z,89.483643
2018-12-11T15:32:27.660Z,89.892578
2018-12-11T15:35:56.528Z,88.861084
2018-12-11T15:39:24.409Z,88.757324
2018-12-11T15:42:53.258Z,88.757324
2018-12-11T15:46:21.136Z,88.031006
2018-12-11T15:49:50.002Z,87.615967
2018-12-11T15:53:17.858Z,88.031006
2018-12-11T15:56:45.729Z,88.861084
2018-12-11T16:00:13.618Z,89.685059
2018-12-11T16:03:41.462Z,88.757324
2018-12-11T16:07:09.354Z,89.068604
2018-12-11T16:10:37.229Z,88.342285
2018-12-11T16:14:05.087Z,87.200928
2018-12-11T16:17:32.961Z,87.408447
2018-12-11T16:21:00.843Z,87.097168
2018-12-11T16:24:28.706Z,86.102295
2018-12-11T16:27:56.593Z,86.578369
2018-12-11T16:31:24.459Z,86.578369
2018-12-11T16:34:52.319Z,86.309814
2018-12-11T16:38:20.193Z,85.272217
2018-12-11T16:41:48.072Z,87.243652
2018-12-11T16:45:15.946Z,87.243652
2018-12-11T16:48:43.807Z,88.38501
2018-12-11T16:52:11.693Z,89.208984
2018-12-11T16:55:39.565Z,90.600586
2018-12-11T16:59:07.431Z,91.326904
2018-12-11T17:02:35.305Z,91.888428
2018-12-11T17:06:03.174Z,92.303467
2018-12-11T17:09:31.038Z,91.265869
2018-12-11T17:12:58.919Z,91.119385
2018-12-11T17:16:26.791Z,90.081787
2018-12-11T17:19:54.648Z,90.496826
2018-12-11T17:23:22.534Z,89.355469
2018-12-11T17:26:50.427Z,89.562988
2018-12-11T17:30:18.305Z,89.562988
2018-12-11T17:33:46.178Z,86.761475
2018-12-11T17:37:14.054Z,87.738037
2018-12-11T17:40:41.929Z,87.695312
2018-12-11T17:44:09.788Z,89.355469
2018-12-11T17:47:37.662Z,90.435791
2018-12-11T17:51:05.537Z,90.686035
2018-12-11T17:54:33.402Z,91.931152
2018-12-11T17:58:01.290Z,91.656494
2018-12-11T18:01:29.175Z,91.760254
2018-12-11T18:04:57.137Z,92.010498
2018-12-11T18:08:25.000Z,92.218018
2018-12-11T18:11:52.875Z,91.07666
2018-12-11T18:15:20.748Z,91.552734
2018-12-11T18:18:48.611Z,91.760254
2018-12-11T18:22:16.486Z,92.071533
2018-12-11T18:25:44.341Z,92.633057
2018-12-11T18:29:12.233Z,92.736816
2018-12-11T18:32:40.101Z,92.840576
2018-12-11T18:36:07.966Z,92.944336
2018-12-11T18:39:35.839Z,93.200684
2018-12-11T18:43:03.723Z,93.511963
2018-12-11T18:46:31.584Z,93.823242
2018-12-11T18:50:00.438Z,93.927002
2018-12-11T18:53:29.311Z,93.408203
2018-12-11T18:56:57.243Z,93.408203
2018-12-11T19:00:25.056Z,93.304443
2018-12-11T19:03:52.940Z,93.823242
2018-12-11T19:07:20.818Z,94.445801
2018-12-11T19:10:48.671Z,94.445801
2018-12-11T19:14:16.569Z,94.342041
2018-12-11T19:17:44.440Z,94.549561
2018-12-11T19:21:12.333Z,95.068359
2018-12-11T19:24:41.253Z,94.9646
2018-12-11T19:28:09.223Z,95.172119
2018-12-11T19:31:37.111Z,95.379639
2018-12-11T19:35:06.007Z,96.002197
2018-12-11T19:38:33.934Z,95.794678
2018-12-11T19:42:02.057Z,94.9646
2018-12-11T19:45:30.437Z,95.129395
2018-12-11T19:48:58.555Z,95.025635
2018-12-11T19:52:27.656Z,95.440674
2018-12-11T19:55:58.847Z,95.544434
2018-12-11T19:59:27.108Z,94.775391
2018-12-11T20:02:57.092Z,93.737793
2018-12-11T20:06:25.177Z,93.07251
2018-12-11T20:09:53.277Z,92.657471
2018-12-11T20:13:22.069Z,93.07251
2018-12-11T20:16:50.188Z,93.334961
2018-12-11T20:20:18.466Z,92.926025
2018-12-11T20:23:47.343Z,92.614746
2018-12-11T20:27:17.163Z,92.407227
2018-12-11T20:30:45.653Z,91.888428
2018-12-11T20:36:20.400Z,92.095947
2018-12-11T20:39:49.632Z,91.888428
2018-12-11T20:43:17.394Z,91.369629
2018-12-11T20:46:45.246Z,91.577148
2018-12-11T20:50:14.205Z,91.119385
2018-12-11T20:53:42.116Z,90.808105
2018-12-11T20:57:10.976Z,90.911865
2018-12-11T21:00:40.441Z,91.326904
2018-12-11T21:04:08.348Z,92.364502
2018-12-11T21:07:37.844Z,92.883301
2018-12-11T21:11:06.069Z,92.614746
2018-12-11T21:14:33.959Z,93.127441
2018-12-11T21:18:01.879Z,93.75
2018-12-11T21:21:30.815Z,93.95752
2018-12-11T21:24:58.679Z,93.85376
2018-12-11T21:28:27.563Z,93.64624
2018-12-11T21:31:55.525Z,93.85376
2018-12-11T21:35:23.439Z,94.580078
2018-12-11T21:38:51.346Z,94.476318
2018-12-11T21:42:19.231Z,94.372559
2018-12-11T21:45:47.170Z,94.061279
2018-12-11T21:49:15.844Z,94.580078
2018-12-11T21:52:43.734Z,93.75
2018-12-11T21:56:12.546Z,93.188477
2018-12-11T21:59:40.548Z,92.883301
2018-12-11T22:03:08.430Z,93.231201
2018-12-11T22:06:36.348Z,93.231201
2018-12-11T22:10:04.270Z,93.95752
2018-12-11T22:13:32.843Z,93.75
2018-12-11T22:17:02.781Z,93.54248
2018-12-11T22:20:30.686Z,93.64624
2018-12-11T22:23:58.553Z,93.95752
2018-12-11T22:27:26.466Z,93.811035
2018-12-11T22:30:55.342Z,93.914795
2018-12-11T22:34:23.255Z,94.641113
2018-12-11T22:37:51.165Z,94.537354
2018-12-11T22:41:20.049Z,94.226074
2018-12-11T22:44:48.930Z,94.018555
2018-12-11T22:48:16.806Z,93.603516
2018-12-11T22:51:44.706Z,93.707275
2018-12-11T22:55:12.707Z,94.018555
2018-12-11T22:58:40.588Z,94.122314
2018-12-11T23:02:08.489Z,94.537354
2018-12-11T23:05:36.370Z,94.805908
2018-12-11T23:09:04.266Z,95.428467
2018-12-11T23:12:32.136Z,96.820068
2018-12-11T23:16:00.027Z,97.131348
2018-12-11T23:19:27.913Z,97.070312
2018-12-11T23:22:55.801Z,97.070312
2018-12-11T23:26:23.695Z,97.277832
2018-12-11T23:29:51.562Z,97.485352
2018-12-11T23:33:19.469Z,97.589111
2018-12-11T23:36:47.357Z,97.796631
2018-12-11T23:40:15.231Z,97.900391
2018-12-11T23:43:43.147Z,98.10791
2018-12-11T23:47:11.021Z,98.480225
2018-12-11T23:50:38.925Z,99.310303
2018-12-11T23:54:06.804Z,99.975586
2018-12-11T23:57:34.690Z,99.993896
